uk im Turnier von 01.04.2019 bis 01.05.2019

uks Ergebnis

Rang 570.
Turnierpunkte 922
Gespielt : Gewonnen 100 : 54
Schneider 6
Bilanz 580:506

uks Bummerln

Zeit Gegner Ergebnis Ende
13:23:15 am 14.04.2019 fritz 7:5 normal
13:18:18 am 14.04.2019 *Michael Krainz 7:2 autocontnormal
13:14:12 am 14.04.2019 wurzel 4:9 normal
13:10:53 am 14.04.2019 JELKA 7:0 normal
17:57:33 am 13.04.2019 Boris 4:7 normal
17:40:09 am 13.04.2019 donric 7:4 normal
17:32:36 am 13.04.2019 Mani88 7:5 normal
17:28:29 am 13.04.2019 Rain 3:8 normal
17:19:09 am 13.04.2019 Speedy 5:7 normal
17:14:38 am 13.04.2019 Cornelia Smarti 7:6 normal
17:12:42 am 13.04.2019 Christopher Stropnik 8:0 normal
14:07:52 am 13.04.2019 Rocket 9:2 normal
13:56:14 am 13.04.2019 Dansch93 7:6 normal
15:53:57 am 12.04.2019 samsung SM-T560 7:1 normal
15:49:05 am 12.04.2019 Kurt. R 7:3 normal
15:45:43 am 12.04.2019 david 9:1 normal
15:31:41 am 12.04.2019 Manu Neubauer 8:4 normal
15:27:04 am 12.04.2019 *samsung heidi-A320FL 8:6 autocontnormal
15:20:24 am 12.04.2019 Murat Çakmak 6:7 normal
15:14:04 am 12.04.2019 tom 6:7 normal
15:07:35 am 12.04.2019 Marlene 3:7 normal
14:58:17 am 12.04.2019 czekus zsolt 7:6 normal
14:53:28 am 12.04.2019 Abendstern 7:1 normal
14:48:49 am 12.04.2019 Oberst Klink 7:6 normal
14:45:16 am 12.04.2019 *Christian Mayr 8:3 autocontnormal
14:40:31 am 12.04.2019 Tadej Began 1:7 normal
14:33:52 am 12.04.2019 Michl P 7:3 normal
14:28:50 am 12.04.2019 Monika Salzger 7:3 normal
14:24:53 am 12.04.2019 lang 8:1 normal
13:52:39 am 12.04.2019 samsung SM-J320FN 7:2 normal
13:47:42 am 12.04.2019 Franz 5:7 normal
13:42:12 am 12.04.2019 G. Gerhard 5:7 normal
13:34:24 am 12.04.2019 Michi 5:8 normal
09:33:36 am 12.04.2019 fauli007 2:7 normal
09:28:40 am 12.04.2019 judas1 5:7 normal
09:20:03 am 12.04.2019 WAS-LX1 9:5 normal
08:26:00 am 12.04.2019 drvowp 7:1 normal
13:11:38 am 11.04.2019 stef 4:7 normal
13:03:36 am 11.04.2019 Mrki 6:7 normal
12:57:01 am 11.04.2019 magsch 6:7 normal
20:29:51 am 10.04.2019 KillerOmi 6:7 normal
14:39:18 am 10.04.2019 Takanohana 1:7 normal
14:34:18 am 10.04.2019 DELETED 2:9 normal
14:29:31 am 10.04.2019 DELETED 7:4 normal
14:26:56 am 10.04.2019 DELETED 0:7 normal
14:22:37 am 10.04.2019 Sonnenblume 9:1 normal
14:18:21 am 10.04.2019 Fischer Rudi 7:5 normal
14:14:35 am 10.04.2019 espressokarli 1:7 normal
14:11:06 am 10.04.2019 Punti 2300 8:4 normal
14:01:11 am 10.04.2019 grillhero 2:8 normal
16:51:16 am 08.04.2019 Thomas 8:2 normal
16:42:22 am 08.04.2019 Safti33 8:6 normal
16:01:25 am 08.04.2019 Cat 1 9:3 normal
15:47:35 am 08.04.2019 kurt 8:0 normal
19:57:59 am 07.04.2019 Martin.P 5:8 normal
19:53:58 am 07.04.2019 Maria Ammer 8:0 normal
15:53:07 am 07.04.2019 HerbertZ 5:7 normal
13:48:29 am 07.04.2019 schau ma mal 3:7 normal
13:44:13 am 07.04.2019 Sonny 8:1 normal
13:37:10 am 07.04.2019 gust2 3:7 normal
13:35:21 am 07.04.2019 Erkenger 2:9 normal
13:27:54 am 07.04.2019 monika.e60 2:8 normal
17:32:42 am 06.04.2019 Manuela 8:0 normal
17:23:17 am 06.04.2019 Babsi 4:7 normal
17:15:22 am 06.04.2019 Alexander Schiller 5:7 normal
17:11:03 am 06.04.2019 Lumpi goes for Nr 1 7:1 normal
17:06:40 am 06.04.2019 endruboy 7:1 normal
13:52:13 am 06.04.2019 Adrian Rauta 8:4 normal
13:46:42 am 06.04.2019 Konstantin 7:6 normal
13:43:40 am 06.04.2019 Kregoar 1:7 normal
13:36:03 am 06.04.2019 Bettina 7:6 normal
13:21:43 am 06.04.2019 Bertmän 2:7 normal
13:15:01 am 06.04.2019 Nino K 9:3 normal
23:02:54 am 05.04.2019 Tom 7:5 normal
22:53:50 am 05.04.2019 Traudi 6:8 normal
22:48:25 am 05.04.2019 michl 8:2 normal
22:39:17 am 05.04.2019 Jürgen H 8:5 normal
22:35:21 am 05.04.2019 Mieze 8:4 normal
22:29:14 am 05.04.2019 sunny 6:7 normal
22:24:18 am 05.04.2019 Hr. Werner 1:8 normal
19:42:24 am 04.04.2019 SM-A520F 7:4 normal
19:38:01 am 04.04.2019 Sleepy82 7:3 normal
19:28:03 am 04.04.2019 Schurli 6:7 normal
18:13:16 am 04.04.2019 GT-I9300 0:8 normal
18:08:00 am 04.04.2019 Aperol 7:6 normal
18:04:07 am 04.04.2019 Dejan 4:7 normal
17:24:06 am 04.04.2019 *JarmenAUT 1:2 crontimeout
17:17:11 am 04.04.2019 Fischa07 6:7 normal
17:09:18 am 04.04.2019 Erika 6:7 normal
14:34:38 am 04.04.2019 Player 7:5 normal
14:27:53 am 04.04.2019 rayman 8:3 normal
14:23:19 am 04.04.2019 bebekoli 4:8 normal
11:06:29 am 04.04.2019 Medo_82 7:3 normal
11:04:35 am 04.04.2019 Ema 7:0 normal
10:57:01 am 04.04.2019 RaabS 6:7 normal
09:50:42 am 04.04.2019 Hexilein 5:9 normal
09:45:27 am 04.04.2019 Andreas Prandl 8:2 normal
21:51:31 am 03.04.2019 Puiu Macula 3:8 normal
21:45:35 am 03.04.2019 Posti 1954 4:8 normal
21:34:51 am 03.04.2019 h schi 7:5 normal